| time (UTC) | temp F | wind direction | speed MPH | gust MPH | rain 1hr in | rain 24hr in | rain mn in | humidity % | barometer mb |
| 20260508205014 | 69 | 176 | 6.0 | 11.0 | 0.00 | 0.00 | 0.00 | 51 | 1015.5 |
| 20260508204511 | 68 | 238 | 5.0 | 9.0 | 0.00 | 0.00 | 0.00 | 51 | 1015.7 |
| 20260508204007 | 68 | 211 | 6.0 | 7.0 | 0.00 | 0.00 | 0.00 | 50 | 1015.7 |
| 20260508203503 | 69 | 246 | 6.0 | 8.0 | 0.00 | 0.00 | 0.00 | 50 | 1015.9 |
| 20260508202959 | 69 | 236 | 3.0 | 6.0 | 0.00 | 0.00 | 0.00 | 51 | 1015.9 |
| 20260508202456 | 69 | 289 | 2.0 | 4.0 | 0.00 | 0.00 | 0.00 | 47 | 1015.8 |
| 20260508201953 | 69 | 270 | 3.0 | 9.0 | 0.00 | 0.00 | 0.00 | 49 | 1015.8 |
| 20260508201450 | 69 | 205 | 4.0 | 7.0 | 0.00 | 0.00 | 0.00 | 49 | 1015.8 |
| 20260508200946 | 69 | 138 | 3.0 | 6.0 | 0.00 | 0.00 | 0.00 | 50 | 1015.9 |
| 20260508200444 | 69 | 222 | 6.0 | 9.0 | 0.00 | 0.00 | 0.00 | 50 | 1016.0 |
| 20260508195938 | 69 | 217 | 6.0 | 8.0 | 0.00 | 0.00 | 0.00 | 49 | 1016.2 |
| 20260508195436 | 68 | 226 | 5.0 | 9.0 | 0.00 | 0.00 | 0.00 | 50 | 1016.3 |
| 20260508194932 | 69 | 271 | 5.0 | 7.0 | 0.00 | 0.00 | 0.00 | 50 | 1016.4 |
| 20260508194429 | 70 | 177 | 5.0 | 7.0 | 0.00 | 0.00 | 0.00 | 46 | 1016.4 |
| 20260508193926 | 69 | 333 | 3.0 | 6.0 | 0.00 | 0.00 | 0.00 | 46 | 1016.2 |
| 20260508193423 | 69 | 234 | 7.0 | 8.0 | 0.00 | 0.00 | 0.00 | 48 | 1016.4 |
| 20260508192919 | 70 | 150 | 2.0 | 6.0 | 0.00 | 0.00 | 0.00 | 49 | 1016.5 |
| 20260508192416 | 69 | 208 | 3.0 | 7.0 | 0.00 | 0.00 | 0.00 | 50 | 1016.8 |
| 20260508191913 | 69 | 183 | 2.0 | 4.0 | 0.00 | 0.00 | 0.00 | 51 | 1016.9 |
| 20260508191411 | 69 | 199 | 7.0 | 10.0 | 0.00 | 0.00 | 0.00 | 47 | 1016.8 |
| 20260508190907 | 69 | 245 | 6.0 | 9.0 | 0.00 | 0.00 | 0.00 | 50 | 1016.9 |
| 20260508190404 | 68 | 171 | 2.0 | 7.0 | 0.00 | 0.00 | 0.00 | 49 | 1017.3 |
| 20260508185900 | 67 | 223 | 4.0 | 7.0 | 0.00 | 0.00 | 0.00 | 49 | 1017.3 |
| 20260508185358 | 68 | 258 | 5.0 | 10.0 | 0.00 | 0.00 | 0.00 | 49 | 1017.4 |
| 20260508184855 | 68 | 226 | 3.0 | 3.0 | 0.00 | 0.00 | 0.00 | 49 | 1017.1 |
| 20260508184353 | 69 | 258 | 3.0 | 6.0 | 0.00 | 0.00 | 0.00 | 48 | 1017.2 |
| 20260508183849 | 68 | 227 | 7.0 | 10.0 | 0.00 | 0.00 | 0.00 | 50 | 1017.3 |
| 20260508183346 | 67 | 160 | 1.0 | 8.0 | 0.00 | 0.00 | 0.00 | 49 | 1017.5 |
| 20260508182842 | 68 | 192 | 5.0 | 7.0 | 0.00 | 0.00 | 0.00 | 50 | 1017.6 |
| 20260508182339 | 69 | 227 | 4.0 | 8.0 | 0.00 | 0.00 | 0.00 | 50 | 1017.6 |
| 20260508181834 | 69 | 260 | 2.0 | 3.0 | 0.00 | 0.00 | 0.00 | 49 | 1017.8 |
| 20260508181331 | 67 | 226 | 2.0 | 6.0 | 0.00 | 0.00 | 0.00 | 51 | 1017.5 |
| 20260508180828 | 67 | 252 | 2.0 | 7.0 | 0.00 | 0.00 | 0.00 | 50 | 1017.9 |
| 20260508180325 | 68 | 255 | 5.0 | 8.0 | 0.00 | 0.00 | 0.00 | 53 | 1017.9 |
| 20260508175821 | 66 | 293 | 3.0 | 8.0 | 0.00 | 0.00 | 0.00 | 53 | 1018.1 |
| 20260508175318 | 67 | 235 | 3.0 | 3.0 | 0.00 | 0.00 | 0.00 | 54 | 1017.9 |
| 20260508174816 | 65 | 167 | 4.0 | 4.0 | 0.00 | 0.00 | 0.00 | 53 | 1017.8 |
| 20260508174313 | 66 | 132 | 0.0 | 6.0 | 0.00 | 0.00 | 0.00 | 51 | 1018.0 |
| 20260508173809 | 68 | 131 | 4.0 | 7.0 | 0.00 | 0.00 | 0.00 | 49 | 1018.0 |
| 20260508173306 | 67 | 243 | 4.0 | 8.0 | 0.00 | 0.00 | 0.00 | 48 | 1018.0 |
| 20260508172802 | 67 | 215 | 4.0 | 9.0 | 0.00 | 0.00 | 0.00 | 50 | 1018.2 |
| 20260508172259 | 67 | 221 | 5.0 | 9.0 | 0.00 | 0.00 | 0.00 | 53 | 1018.3 |
| 20260508171755 | 67 | 114 | 3.0 | 7.0 | 0.00 | 0.00 | 0.00 | 49 | 1018.5 |
| 20260508171252 | 67 | 234 | 3.0 | 7.0 | 0.00 | 0.00 | 0.00 | 54 | 1018.4 |
| 20260508170749 | 66 | 349 | 2.0 | 7.0 | 0.00 | 0.00 | 0.00 | 50 | 1018.4 |
| 20260508170247 | 66 | 263 | 6.0 | 8.0 | 0.00 | 0.00 | 0.00 | 52 | 1018.6 |
| 20260508165743 | 66 | 254 | 4.0 | 7.0 | 0.00 | 0.00 | 0.00 | 53 | 1018.6 |
| 20260508165241 | 67 | 214 | 4.0 | 4.0 | 0.00 | 0.00 | 0.00 | 51 | 1018.7 |
| 20260508164737 | 66 | 207 | 2.0 | 4.0 | 0.00 | 0.00 | 0.00 | 52 | 1018.8 |
| 20260508164233 | 66 | 201 | 8.0 | 9.0 | 0.00 | 0.00 | 0.00 | 52 | 1019.1 |
| 20260508163732 | 65 | 213 | 0.0 | 4.0 | 0.00 | 0.00 | 0.00 | 59 | 1019.1 |
| 20260508163229 | 66 | 134 | 1.0 | 9.0 | 0.00 | 0.00 | 0.00 | 51 | 1019.2 |
| 20260508162724 | 65 | 254 | 5.0 | 7.0 | 0.00 | 0.00 | 0.00 | 53 | 1019.3 |
| 20260508162222 | 64 | 112 | 1.0 | 6.0 | 0.00 | 0.00 | 0.00 | 53 | 1019.2 |
| 20260508161719 | 65 | 284 | 3.0 | 7.0 | 0.00 | 0.00 | 0.00 | 51 | 1019.1 |
| 20260508161216 | 64 | 270 | 4.0 | 6.0 | 0.00 | 0.00 | 0.00 | 54 | 1019.3 |
| 20260508160714 | 64 | 223 | 5.0 | 7.0 | 0.00 | 0.00 | 0.00 | 54 | 1019.3 |
| 20260508160212 | 64 | 241 | 6.0 | 8.0 | 0.00 | 0.00 | 0.00 | 54 | 1019.5 |
| 20260508155708 | 66 | 221 | 4.0 | 7.0 | 0.00 | 0.00 | 0.00 | 53 | 1019.6 |
| 20260508155205 | 65 | 148 | 1.0 | 4.0 | 0.00 | 0.00 | 0.00 | 52 | 1019.5 |
| 20260508154702 | 64 | 187 | 2.0 | 4.0 | 0.00 | 0.00 | 0.00 | 55 | 1019.6 |
| 20260508154159 | 63 | 148 | 0.0 | 2.0 | 0.00 | 0.00 | 0.00 | 57 | 1019.8 |
| 20260508153656 | 64 | 238 | 4.0 | 8.0 | 0.00 | 0.00 | 0.00 | 58 | 1019.6 |
| 20260508153153 | 65 | 130 | 2.0 | 4.0 | 0.00 | 0.00 | 0.00 | 56 | 1019.5 |
| 20260508152649 | 63 | 179 | 2.0 | 4.0 | 0.00 | 0.00 | 0.00 | 57 | 1019.7 |
| 20260508152145 | 64 | 211 | 3.0 | 6.0 | 0.00 | 0.00 | 0.00 | 55 | 1019.6 |
| 20260508151642 | 63 | 157 | 0.0 | 2.0 | 0.00 | 0.00 | 0.00 | 57 | 1019.7 |
| 20260508151138 | 64 | 145 | 0.0 | 4.0 | 0.00 | 0.00 | 0.00 | 55 | 1019.6 |
| 20260508150636 | 65 | 279 | 4.0 | 6.0 | 0.00 | 0.00 | 0.00 | 57 | 1019.6 |
| 20260508150132 | 64 | 187 | 1.0 | 3.0 | 0.00 | 0.00 | 0.00 | 56 | 1019.7 |
| 20260508145628 | 64 | 134 | 1.0 | 3.0 | 0.00 | 0.00 | 0.00 | 55 | 1019.4 |
| 20260508145125 | 66 | 284 | 2.0 | 2.0 | 0.00 | 0.00 | 0.00 | 53 | 1019.7 |
| 20260508144622 | 66 | 60 | 2.0 | 3.0 | 0.00 | 0.00 | 0.00 | 57 | 1019.7 |
| 20260508144120 | 65 | 118 | 1.0 | 3.0 | 0.00 | 0.00 | 0.00 | 57 | 1019.8 |
| 20260508143617 | 64 | 138 | 0.0 | 2.0 | 0.00 | 0.00 | 0.00 | 56 | 1019.9 |
| 20260508143114 | 65 | 60 | 2.0 | 3.0 | 0.00 | 0.00 | 0.00 | 58 | 1019.8 |
| 20260508142610 | 64 | 72 | 2.0 | 2.0 | 0.00 | 0.00 | 0.00 | 54 | 1019.8 |
| 20260508142107 | 64 | 122 | 1.0 | 1.0 | 0.00 | 0.00 | 0.00 | 54 | 1019.8 |
| 20260508141604 | 62 | 107 | 0.0 | 2.0 | 0.00 | 0.00 | 0.00 | 55 | 1019.8 |
| 20260508141101 | 62 | 227 | 2.0 | 6.0 | 0.00 | 0.00 | 0.00 | 60 | 1019.8 |
| 20260508140558 | 62 | 208 | 2.0 | 6.0 | 0.00 | 0.00 | 0.00 | 55 | 1020.0 |
| 20260508140055 | 62 | 167 | 0.0 | 0.0 | 0.00 | 0.00 | 0.00 | 56 | 1020.0 |
| 20260508135550 | 62 | 236 | 4.0 | 6.0 | 0.00 | 0.00 | 0.00 | 55 | 1020.0 |
| 20260508135047 | 61 | 317 | 2.0 | 4.0 | 0.00 | 0.00 | 0.00 | 57 | 1020.0 |
| 20260508134544 | 62 | 292 | 3.0 | 3.0 | 0.00 | 0.00 | 0.00 | 55 | 1019.9 |
| 20260508134041 | 62 | 151 | 0.0 | 2.0 | 0.00 | 0.00 | 0.00 | 55 | 1019.9 |
| 20260508133537 | 63 | 129 | 0.0 | 1.0 | 0.00 | 0.00 | 0.00 | 57 | 1019.9 |
| 20260508133035 | 62 | 100 | 1.0 | 2.0 | 0.00 | 0.00 | 0.00 | 58 | 1019.9 |
| 20260508132533 | 63 | 120 | 0.0 | 1.0 | 0.00 | 0.00 | 0.00 | 56 | 1020.0 |
| 20260508132029 | 62 | 123 | 0.0 | 1.0 | 0.00 | 0.00 | 0.00 | 56 | 1020.0 |
| 20260508131524 | 61 | 128 | 0.0 | 1.0 | 0.00 | 0.00 | 0.00 | 59 | 1019.8 |
| 20260508131021 | 61 | 252 | 0.0 | 1.0 | 0.00 | 0.00 | 0.00 | 66 | 1019.8 |
| 20260508130519 | 59 | 112 | 1.0 | 2.0 | 0.00 | 0.00 | 0.00 | 72 | 1019.7 |
| 20260508130015 | 59 | 44 | 2.0 | 2.0 | 0.00 | 0.00 | 0.00 | 70 | 1019.8 |
| 20260508125510 | 58 | 80 | 2.0 | 2.0 | 0.00 | 0.00 | 0.00 | 74 | 1019.5 |
| 20260508125008 | 58 | 154 | 0.0 | 0.0 | 0.00 | 0.00 | 0.00 | 80 | 1019.6 |
| 20260508124506 | 57 | 156 | 0.0 | 0.0 | 0.00 | 0.00 | 0.00 | 82 | 1019.8 |
| 20260508124003 | 56 | 150 | 0.0 | 0.0 | 0.00 | 0.00 | 0.00 | 85 | 1019.6 |
| 20260508123502 | 54 | 146 | 0.0 | 0.0 | 0.00 | 0.00 | 0.00 | 87 | 1019.6 |
| 20260508122958 | 53 | 166 | 0.0 | 0.0 | 0.00 | 0.00 | 0.00 | 89 | 1019.3 |
| 20260508122455 | 52 | 165 | 0.0 | 0.0 | 0.00 | 0.00 | 0.00 | 91 | 1019.5 |
| 20260508121952 | 51 | 158 | 0.0 | 0.0 | 0.00 | 0.00 | 0.00 | 92 | 1019.2 |
| 20260508121450 | 51 | 146 | 0.0 | 0.0 | 0.00 | 0.00 | 0.00 | 96 | 1019.4 |
| 20260508120948 | 50 | 147 | 0.0 | 0.0 | 0.00 | 0.00 | 0.00 | 98 | 1019.5 |
| 20260508120445 | 50 | 144 | 0.0 | 0.0 | 0.00 | 0.00 | 0.00 | 98 | 1019.3 |
| 20260508115943 | 50 | 119 | 0.0 | 0.0 | 0.00 | 0.00 | 0.00 | 99 | 1019.1 |
| 20260508115440 | 48 | 128 | 0.0 | 0.0 | 0.00 | 0.00 | 0.00 | 99 | 1019.0 |
| 20260508114936 | 50 | 125 | 0.0 | 0.0 | 0.00 | 0.00 | 0.00 | 99 | 1019.1 |
| 20260508114434 | 48 | 141 | 0.0 | 0.0 | 0.00 | 0.00 | 0.00 | 99 | 1018.8 |
| 20260508113930 | 46 | 142 | 0.0 | 0.0 | 0.00 | 0.00 | 0.00 | 99 | 1019.0 |
| 20260508113428 | 44 | 115 | 0.0 | 0.0 | 0.00 | 0.00 | 0.00 | 99 | 1018.8 |
| 20260508112925 | 45 | 114 | 0.0 | 0.0 | 0.00 | 0.00 | 0.00 | 99 | 1018.6 |
| 20260508112422 | 44 | 114 | 0.0 | 0.0 | 0.00 | 0.00 | 0.00 | 99 | 1018.5 |
| 20260508111918 | 44 | 127 | 0.0 | 0.0 | 0.00 | 0.00 | 0.00 | 99 | 1018.5 |
| 20260508111415 | 44 | 115 | 0.0 | 0.0 | 0.00 | 0.00 | 0.00 | 99 | 1018.6 |
| 20260508110913 | 44 | 102 | 0.0 | 0.0 | 0.00 | 0.00 | 0.00 | 99 | 1018.3 |
| 20260508110411 | 43 | 135 | 0.0 | 0.0 | 0.00 | 0.00 | 0.00 | 99 | 1018.1 |
| 20260508105910 | 43 | 135 | 0.0 | 0.0 | 0.00 | 0.00 | 0.00 | 99 | 1017.9 |
| 20260508105406 | 43 | 129 | 0.0 | 0.0 | 0.00 | 0.00 | 0.00 | 99 | 1018.1 |
| 20260508104904 | 43 | 126 | 0.0 | 0.0 | 0.00 | 0.00 | 0.00 | 99 | 1018.0 |
| 20260508104401 | 43 | 136 | 0.0 | 0.0 | 0.00 | 0.00 | 0.00 | 99 | 1017.8 |
| 20260508103858 | 43 | 104 | 0.0 | 0.0 | 0.00 | 0.00 | 0.00 | 99 | 1017.8 |
| 20260508103354 | 43 | 150 | 0.0 | 0.0 | 0.00 | 0.00 | 0.00 | 99 | 1017.8 |
| 20260508102852 | 43 | 151 | 0.0 | 0.0 | 0.00 | 0.00 | 0.00 | 99 | 1017.7 |
| 20260508102350 | 43 | 151 | 0.0 | 0.0 | 0.00 | 0.00 | 0.00 | 99 | 1017.8 |
| 20260508101847 | 44 | 151 | 0.0 | 0.0 | 0.00 | 0.00 | 0.00 | 99 | 1017.3 |
| 20260508101344 | 43 | 114 | 0.0 | 0.0 | 0.00 | 0.00 | 0.00 | 99 | 1017.4 |
| 20260508100842 | 43 | 114 | 0.0 | 0.0 | 0.00 | 0.00 | 0.00 | 99 | 1017.4 |
| 20260508100341 | 43 | 123 | 0.0 | 0.0 | 0.00 | 0.00 | 0.00 | 99 | 1017.1 |
| 20260508095835 | 44 | 123 | 0.0 | 0.0 | 0.00 | 0.00 | 0.00 | 99 | 1017.2 |
| 20260508095333 | 43 | 114 | 0.0 | 0.0 | 0.00 | 0.00 | 0.00 | 99 | 1017.0 |
| 20260508094830 | 43 | 113 | 0.0 | 0.0 | 0.00 | 0.00 | 0.00 | 99 | 1017.1 |
| 20260508094327 | 43 | 112 | 0.0 | 0.0 | 0.00 | 0.00 | 0.00 | 99 | 1017.1 |
| 20260508093824 | 43 | 146 | 0.0 | 0.0 | 0.00 | 0.00 | 0.00 | 99 | 1017.2 |
| 20260508093322 | 44 | 146 | 0.0 | 0.0 | 0.00 | 0.00 | 0.00 | 99 | 1017.2 |
| 20260508092819 | 44 | 158 | 0.0 | 0.0 | 0.00 | 0.00 | 0.00 | 99 | 1017.1 |
| 20260508092317 | 44 | 131 | 0.0 | 0.0 | 0.00 | 0.00 | 0.00 | 99 | 1017.2 |
| 20260508091815 | 44 | 128 | 0.0 | 0.0 | 0.00 | 0.00 | 0.00 | 99 | 1017.1 |
| 20260508091311 | 44 | 123 | 0.0 | 0.0 | 0.00 | 0.00 | 0.00 | 99 | 1017.1 |
| 20260508090809 | 44 | 105 | 0.0 | 0.0 | 0.00 | 0.00 | 0.00 | 98 | 1017.0 |
| 20260508090307 | 45 | 142 | 0.0 | 0.0 | 0.00 | 0.00 | 0.00 | 99 | 1017.1 |
| 20260508085802 | 45 | 118 | 0.0 | 0.0 | 0.00 | 0.00 | 0.00 | 99 | 1016.9 |
| 20260508085300 | 45 | 100 | 2.0 | 2.0 | 0.00 | 0.00 | 0.00 | 98 | 1016.9 |
| 20260508084755 | 45 | 119 | 0.0 | 0.0 | 0.00 | 0.00 | 0.00 | 98 | 1016.8 |
| 20260508084253 | 46 | 132 | 0.0 | 0.0 | 0.00 | 0.00 | 0.00 | 98 | 1016.8 |
| 20260508083750 | 46 | 131 | 0.0 | 0.0 | 0.00 | 0.00 | 0.00 | 98 | 1016.7 |
| 20260508083248 | 46 | 132 | 0.0 | 0.0 | 0.00 | 0.00 | 0.00 | 98 | 1016.5 |
| 20260508082747 | 45 | 132 | 0.0 | 0.0 | 0.00 | 0.00 | 0.00 | 98 | 1016.8 |
| 20260508082246 | 45 | 132 | 0.0 | 0.0 | 0.00 | 0.00 | 0.00 | 98 | 1016.8 |
| 20260508081743 | 45 | 131 | 0.0 | 0.0 | 0.00 | 0.00 | 0.00 | 98 | 1016.7 |
| 20260508081239 | 45 | 131 | 0.0 | 0.0 | 0.00 | 0.00 | 0.00 | 98 | 1016.7 |
| 20260508080736 | 45 | 145 | 0.0 | 0.0 | 0.00 | 0.00 | 0.00 | 98 | 1016.7 |
| 20260508080235 | 45 | 145 | 0.0 | 0.0 | 0.00 | 0.00 | 0.00 | 98 | 1016.5 |
| 20260508075731 | 45 | 145 | 0.0 | 0.0 | 0.00 | 0.00 | 0.00 | 98 | 1016.5 |
| 20260508075228 | 46 | 144 | 0.0 | 0.0 | 0.00 | 0.00 | 0.00 | 98 | 1016.5 |
| 20260508074725 | 46 | 124 | 0.0 | 0.0 | 0.00 | 0.00 | 0.00 | 97 | 1016.4 |
| 20260508074223 | 45 | 139 | 0.0 | 0.0 | 0.00 | 0.00 | 0.00 | 97 | 1016.5 |
| 20260508073719 | 46 | 139 | 0.0 | 0.0 | 0.00 | 0.00 | 0.00 | 97 | 1016.4 |
| 20260508073218 | 46 | 139 | 0.0 | 0.0 | 0.00 | 0.00 | 0.00 | 97 | 1016.3 |
| 20260508072713 | 46 | 138 | 0.0 | 0.0 | 0.00 | 0.00 | 0.00 | 97 | 1016.5 |
| 20260508072210 | 46 | 131 | 0.0 | 0.0 | 0.00 | 0.00 | 0.00 | 97 | 1016.4 |
| 20260508071707 | 47 | 109 | 0.0 | 1.0 | 0.00 | 0.00 | 0.00 | 97 | 1016.4 |
| 20260508071206 | 46 | 148 | 0.0 | 0.0 | 0.00 | 0.00 | 0.00 | 97 | 1016.1 |
| 20260508070703 | 46 | 115 | 0.0 | 1.0 | 0.00 | 0.00 | 0.00 | 97 | 1016.2 |
| 20260508070201 | 47 | 90 | 1.0 | 1.0 | 0.00 | 0.00 | 0.00 | 96 | 1016.3 |
| 20260508065658 | 47 | 110 | 0.0 | 0.0 | 0.00 | 0.00 | 0.00 | 96 | 1016.2 |
| 20260508065156 | 47 | 123 | 0.0 | 0.0 | 0.00 | 0.00 | 0.00 | 96 | 1016.1 |
| 20260508064654 | 47 | 123 | 0.0 | 0.0 | 0.00 | 0.00 | 0.00 | 96 | 1016.2 |
| 20260508064152 | 47 | 123 | 0.0 | 0.0 | 0.00 | 0.00 | 0.00 | 96 | 1016.2 |
| 20260508063649 | 48 | 123 | 0.0 | 0.0 | 0.00 | 0.00 | 0.00 | 95 | 1015.9 |
| 20260508063147 | 48 | 123 | 0.0 | 0.0 | 0.00 | 0.00 | 0.00 | 95 | 1016.0 |
| 20260508062644 | 48 | 120 | 0.0 | 0.0 | 0.00 | 0.00 | 0.00 | 95 | 1016.2 |
| 20260508062140 | 48 | 128 | 0.0 | 0.0 | 0.00 | 0.00 | 0.00 | 95 | 1016.1 |
| 20260508061638 | 48 | 147 | 0.0 | 0.0 | 0.00 | 0.00 | 0.00 | 95 | 1016.0 |
| 20260508061135 | 48 | 109 | 0.0 | 1.0 | 0.00 | 0.00 | 0.00 | 94 | 1015.9 |
| 20260508060632 | 49 | 138 | 1.0 | 1.0 | 0.00 | 0.00 | 0.00 | 94 | 1016.0 |
| 20260508060129 | 49 | 89 | 1.0 | 2.0 | 0.00 | 0.00 | 0.00 | 94 | 1016.2 |
| 20260508055624 | 49 | 145 | 0.0 | 0.0 | 0.00 | 0.00 | 0.00 | 94 | 1016.1 |
| 20260508055121 | 49 | 162 | 1.0 | 2.0 | 0.00 | 0.00 | 0.00 | 94 | 1016.1 |
| 20260508054618 | 49 | 142 | 0.0 | 0.0 | 0.00 | 0.00 | 0.00 | 93 | 1016.3 |
| 20260508054116 | 49 | 122 | 0.0 | 0.0 | 0.00 | 0.00 | 0.00 | 93 | 1016.2 |
| 20260508053612 | 49 | 189 | 0.0 | 0.0 | 0.00 | 0.00 | 0.00 | 93 | 1016.2 |
| 20260508053110 | 49 | 134 | 0.0 | 0.0 | 0.00 | 0.00 | 0.00 | 92 | 1016.1 |
| 20260508052607 | 50 | 191 | 0.0 | 2.0 | 0.00 | 0.00 | 0.00 | 92 | 1016.1 |
| 20260508052104 | 49 | 62 | 1.0 | 2.0 | 0.00 | 0.00 | 0.00 | 92 | 1016.0 |
| 20260508051600 | 50 | 187 | 1.0 | 2.0 | 0.00 | 0.00 | 0.00 | 91 | 1015.9 |
| 20260508051056 | 50 | 134 | 0.0 | 0.0 | 0.00 | 0.00 | 0.00 | 90 | 1015.9 |
| 20260508050552 | 50 | 164 | 1.0 | 2.0 | 0.00 | 0.00 | 0.00 | 91 | 1015.9 |
| 20260508050050 | 50 | 188 | 2.0 | 2.0 | 0.00 | 0.00 | 0.00 | 89 | 1015.9 |
| 20260508045546 | 51 | 323 | 1.0 | 2.0 | 0.00 | 0.00 | 0.00 | 88 | 1016.1 |
| 20260508045044 | 53 | 190 | 0.0 | 0.0 | 0.00 | 0.00 | 0.00 | 84 | 1015.8 |
| 20260508044541 | 53 | 194 | 1.0 | 3.0 | 0.00 | 0.00 | 0.00 | 78 | 1015.8 |
| 20260508044036 | 52 | 187 | 3.0 | 3.0 | 0.00 | 0.00 | 0.00 | 83 | 1015.5 |
| 20260508043533 | 52 | 161 | 0.0 | 0.0 | 0.00 | 0.00 | 0.00 | 84 | 1015.7 |
| 20260508043031 | 53 | 157 | 0.0 | 0.0 | 0.00 | 0.00 | 0.00 | 79 | 1015.8 |
| 20260508042527 | 54 | 152 | 0.0 | 0.0 | 0.00 | 0.00 | 0.00 | 78 | 1015.6 |
| 20260508042025 | 54 | 128 | 0.0 | 0.0 | 0.00 | 0.00 | 0.00 | 78 | 1015.3 |
| 20260508041521 | 53 | 127 | 0.0 | 0.0 | 0.00 | 0.00 | 0.00 | 79 | 1015.6 |
| 20260508041018 | 53 | 128 | 0.0 | 0.0 | 0.00 | 0.00 | 0.00 | 81 | 1015.6 |
| 20260508040515 | 53 | 128 | 0.0 | 0.0 | 0.00 | 0.00 | 0.00 | 81 | 1015.5 |
| 20260508040012 | 53 | 127 | 0.0 | 0.0 | 0.00 | 0.47 | 0.47 | 82 | 1015.6 |
| 20260508035509 | 53 | 127 | 0.0 | 0.0 | 0.00 | 0.47 | 0.47 | 82 | 1015.6 |
| 20260508035006 | 54 | 131 | 0.0 | 0.0 | 0.00 | 0.47 | 0.47 | 82 | 1015.7 |
| 20260508034503 | 54 | 121 | 0.0 | 0.0 | 0.00 | 0.47 | 0.47 | 78 | 1015.7 |
| 20260508034000 | 54 | 94 | 0.0 | 0.0 | 0.00 | 0.47 | 0.47 | 76 | 1015.6 |
| 20260508033458 | 55 | 131 | 0.0 | 0.0 | 0.00 | 0.47 | 0.47 | 78 | 1015.6 |
| 20260508032955 | 55 | 27 | 1.0 | 2.0 | 0.00 | 0.47 | 0.47 | 77 | 1015.7 |
| 20260508032452 | 55 | 74 | 0.0 | 2.0 | 0.00 | 0.47 | 0.47 | 77 | 1015.5 |
| 20260508031949 | 54 | 111 | 0.0 | 2.0 | 0.00 | 0.47 | 0.47 | 78 | 1015.6 |
| 20260508031446 | 54 | 121 | 0.0 | 0.0 | 0.00 | 0.47 | 0.47 | 79 | 1015.7 |
| 20260508030942 | 54 | 112 | 0.0 | 0.0 | 0.00 | 0.47 | 0.47 | 79 | 1015.6 |
| 20260508030439 | 54 | 97 | 0.0 | 1.0 | 0.00 | 0.47 | 0.47 | 78 | 1015.5 |
| 20260508025936 | 54 | 122 | 0.0 | 0.0 | 0.00 | 0.47 | 0.47 | 79 | 1015.3 |
| 20260508025433 | 54 | 126 | 0.0 | 1.0 | 0.00 | 0.47 | 0.47 | 77 | 1015.5 |
| 20260508024930 | 54 | 121 | 0.0 | 0.0 | 0.00 | 0.47 | 0.47 | 76 | 1015.5 |
| 20260508024426 | 55 | 124 | 0.0 | 0.0 | 0.00 | 0.47 | 0.47 | 75 | 1015.2 |
| 20260508023923 | 56 | 116 | 0.0 | 0.0 | 0.00 | 0.47 | 0.47 | 72 | 1015.3 |
| 20260508023420 | 56 | 115 | 0.0 | 0.0 | 0.00 | 0.47 | 0.47 | 71 | 1015.3 |
| 20260508022917 | 56 | 112 | 0.0 | 0.0 | 0.00 | 0.47 | 0.47 | 70 | 1015.0 |
| 20260508022412 | 56 | 98 | 0.0 | 1.0 | 0.00 | 0.47 | 0.47 | 71 | 1015.1 |
| 20260508021910 | 57 | 95 | 0.0 | 1.0 | 0.00 | 0.47 | 0.47 | 71 | 1015.0 |
| 20260508021406 | 56 | 109 | 0.0 | 1.0 | 0.00 | 0.47 | 0.47 | 72 | 1015.0 |
| 20260508020901 | 57 | 48 | 1.0 | 2.0 | 0.00 | 0.47 | 0.47 | 70 | 1014.9 |
| 20260508020400 | 56 | 111 | 1.0 | 2.0 | 0.00 | 0.47 | 0.47 | 70 | 1014.8 |
| 20260508015856 | 57 | 118 | 0.0 | 0.0 | 0.00 | 0.47 | 0.47 | 69 | 1014.8 |
| 20260508015354 | 57 | 118 | 0.0 | 0.0 | 0.00 | 0.47 | 0.47 | 69 | 1014.6 |
| 20260508014850 | 57 | 118 | 0.0 | 0.0 | 0.00 | 0.47 | 0.47 | 68 | 1014.3 |
| 20260508014348 | 57 | 96 | 1.0 | 3.0 | 0.00 | 0.47 | 0.47 | 67 | 1014.5 |
| 20260508013843 | 57 | 73 | 1.0 | 2.0 | 0.00 | 0.47 | 0.47 | 69 | 1014.3 |
| 20260508013340 | 58 | 100 | 1.0 | 2.0 | 0.00 | 0.47 | 0.47 | 69 | 1014.3 |
| 20260508012837 | 58 | 101 | 1.0 | 2.0 | 0.00 | 0.47 | 0.47 | 68 | 1014.3 |
| 20260508012334 | 58 | 105 | 0.0 | 2.0 | 0.00 | 0.47 | 0.47 | 68 | 1014.1 |
| 20260508011832 | 58 | 124 | 2.0 | 2.0 | 0.00 | 0.47 | 0.47 | 68 | 1013.7 |
| 20260508011330 | 58 | 107 | 1.0 | 2.0 | 0.00 | 0.47 | 0.47 | 67 | 1013.7 |
| 20260508010826 | 59 | 110 | 0.0 | 1.0 | 0.00 | 0.47 | 0.47 | 67 | 1013.8 |
| 20260508010324 | 59 | 68 | 0.0 | 3.0 | 0.00 | 0.47 | 0.47 | 65 | 1013.6 |
| 20260508005821 | 59 | 83 | 2.0 | 2.0 | 0.00 | 0.47 | 0.47 | 65 | 1013.4 |
| 20260508005318 | 59 | 49 | 0.0 | 1.0 | 0.00 | 0.47 | 0.47 | 66 | 1013.5 |
| 20260508004814 | 60 | 36 | 1.0 | 2.0 | 0.00 | 0.47 | 0.47 | 65 | 1013.4 |
| 20260508004310 | 60 | 146 | 2.0 | 2.0 | 0.00 | 0.47 | 0.47 | 65 | 1013.4 |
| 20260508003806 | 60 | 72 | 2.0 | 2.0 | 0.00 | 0.47 | 0.47 | 64 | 1013.2 |
| 20260508003259 | 60 | 124 | 0.0 | 7.0 | 0.00 | 0.47 | 0.47 | 66 | 1013.2 |
| 20260508002755 | 60 | 63 | 3.0 | 4.0 | 0.00 | 0.47 | 0.47 | 66 | 1013.0 |
| 20260508002252 | 61 | 24 | 2.0 | 4.0 | 0.00 | 0.47 | 0.47 | 67 | 1012.8 |
| 20260508001748 | 61 | 46 | 1.0 | 4.0 | 0.00 | 0.47 | 0.47 | 67 | 1012.7 |
| 20260508001244 | 61 | 84 | 1.0 | 3.0 | 0.00 | 0.47 | 0.47 | 67 | 1012.5 |
| 20260508000740 | 61 | 79 | 1.0 | 1.0 | 0.00 | 0.47 | 0.47 | 68 | 1012.4 |
| 20260508000238 | 62 | 67 | 2.0 | 6.0 | 0.00 | 0.47 | 0.47 | 67 | 1012.2 |
| 20260507235734 | 62 | 13 | 1.0 | 3.0 | 0.00 | 0.47 | 0.47 | 66 | 1012.2 |
| 20260507235232 | 63 | 24 | 3.0 | 3.0 | 0.00 | 0.47 | 0.47 | 66 | 1012.0 |
| 20260507234728 | 64 | 316 | 3.0 | 8.0 | 0.00 | 0.47 | 0.47 | 64 | 1012.2 |
| 20260507234225 | 64 | 25 | 3.0 | 4.0 | 0.00 | 0.47 | 0.47 | 64 | 1012.2 |
| 20260507233721 | 65 | 35 | 2.0 | 6.0 | 0.00 | 0.47 | 0.47 | 63 | 1012.0 |
| 20260507233220 | 65 | 70 | 2.0 | 3.0 | 0.00 | 0.47 | 0.47 | 64 | 1012.0 |
| 20260507232716 | 66 | 141 | 3.0 | 6.0 | 0.00 | 0.47 | 0.47 | 63 | 1011.5 |
| 20260507232214 | 66 | 66 | 2.0 | 4.0 | 0.00 | 0.47 | 0.47 | 63 | 1011.5 |
| 20260507231710 | 66 | 26 | 5.0 | 8.0 | 0.00 | 0.47 | 0.47 | 62 | 1011.7 |
| 20260507231207 | 67 | 98 | 2.0 | 7.0 | 0.00 | 0.47 | 0.47 | 63 | 1011.6 |
| 20260507230704 | 67 | 54 | 1.0 | 4.0 | 0.00 | 0.47 | 0.47 | 64 | 1011.6 |
| 20260507230201 | 67 | 18 | 2.0 | 4.0 | 0.00 | 0.47 | 0.47 | 63 | 1011.9 |
| 20260507225700 | 67 | 359 | 3.0 | 6.0 | 0.00 | 0.47 | 0.47 | 62 | 1011.7 |
| 20260507225157 | 68 | 32 | 4.0 | 13.0 | 0.00 | 0.47 | 0.47 | 63 | 1011.1 |
| 20260507224653 | 69 | 84 | 3.0 | 6.0 | 0.00 | 0.47 | 0.47 | 62 | 1011.1 |
| 20260507224150 | 69 | 126 | 1.0 | 6.0 | 0.00 | 0.47 | 0.47 | 63 | 1011.2 |
| 20260507223646 | 69 | 70 | 0.0 | 3.0 | 0.00 | 0.47 | 0.47 | 63 | 1010.9 |
| 20260507223143 | 70 | 51 | 1.0 | 7.0 | 0.00 | 0.47 | 0.47 | 62 | 1010.6 |
| 20260507222640 | 70 | 45 | 4.0 | 6.0 | 0.00 | 0.47 | 0.47 | 63 | 1010.6 |
| 20260507222136 | 71 | 28 | 3.0 | 4.0 | 0.00 | 0.47 | 0.47 | 62 | 1010.3 |
| 20260507221632 | 72 | 98 | 1.0 | 4.0 | 0.00 | 0.47 | 0.47 | 62 | 1010.0 |
| 20260507221129 | 73 | 83 | 1.0 | 2.0 | 0.00 | 0.47 | 0.47 | 64 | 1010.0 |
| 20260507220626 | 73 | 114 | 0.0 | 0.0 | 0.00 | 0.47 | 0.47 | 65 | 1010.0 |
| 20260507220124 | 73 | 124 | 0.0 | 2.0 | 0.00 | 0.47 | 0.47 | 64 | 1009.8 |
| 20260507215620 | 74 | 61 | 0.0 | 4.0 | 0.00 | 0.47 | 0.47 | 64 | 1009.8 |
| 20260507215118 | 74 | 69 | 0.0 | 4.0 | 0.00 | 0.47 | 0.47 | 65 | 1009.9 |
| 20260507214615 | 74 | 96 | 1.0 | 2.0 | 0.00 | 0.47 | 0.47 | 64 | 1009.6 |
| 20260507214111 | 75 | 44 | 1.0 | 3.0 | 0.00 | 0.47 | 0.47 | 62 | 1009.6 |
| 20260507213607 | 75 | 343 | 6.0 | 10.0 | 0.00 | 0.47 | 0.47 | 59 | 1009.5 |
| 20260507213105 | 76 | 30 | 3.0 | 6.0 | 0.00 | 0.47 | 0.47 | 56 | 1009.7 |
| 20260507212600 | 76 | 341 | 5.0 | 8.0 | 0.00 | 0.47 | 0.47 | 58 | 1009.6 |
| 20260507212057 | 77 | 325 | 5.0 | 10.0 | 0.00 | 0.47 | 0.47 | 57 | 1009.4 |
| 20260507211554 | 78 | 333 | 4.0 | 8.0 | 0.00 | 0.47 | 0.47 | 58 | 1009.5 |
| 20260507211050 | 79 | 13 | 2.0 | 6.0 | 0.00 | 0.47 | 0.47 | 55 | 1009.2 |
| 20260507210547 | 79 | 59 | 2.0 | 6.0 | 0.00 | 0.47 | 0.47 | 58 | 1009.1 |
| 20260507210044 | 78 | 33 | 3.0 | 10.0 | 0.00 | 0.47 | 0.47 | 56 | 1009.1 |
| 20260507205541 | 78 | 286 | 7.0 | 9.0 | 0.00 | 0.47 | 0.47 | 54 | 1009.2 |